Time;durP1;ratioP1;P1;durP2;ratioP2;P2;SDS_P1;SDS_P2;PMS_P1;PMS_P2;Temp;Humidity;BMP_temperature;BMP_pressure;BME280_temperature;BME280_humidity;BME280_pressure;Samples;Min_cycle;Max_cycle;Signal;HPM_P1;HPM_P2
2022/12/22 03:27:23;;;;;;;65.78;23.15;;;;;;;7.65;100.00;100052.41;5021681;28;20096;-70
2022/12/22 03:29:49;;;;;;;101.95;24.85;;;;;;;7.63;100.00;100046.22;5024989;28;20421;-70
2022/12/22 03:32:14;;;;;;;117.00;25.92;;;;;;;7.61;100.00;100048.00;5021394;28;20527;-70
2022/12/22 03:34:40;;;;;;;72.85;23.98;;;;;;;7.60;100.00;100040.97;5023591;28;20370;-70
2022/12/22 03:37:05;;;;;;;114.88;26.70;;;;;;;7.61;100.00;100043.59;5022780;28;20029;-70
2022/12/22 03:39:31;;;;;;;103.45;25.23;;;;;;;7.61;100.00;100037.47;5020993;28;20032;-69
2022/12/22 03:47:24;;;;;;;357.60;32.72;;;;;;;7.54;100.00;100033.06;5021391;28;20568;-71
2022/12/22 03:49:49;;;;;;;358.67;33.13;;;;;;;7.52;100.00;100026.94;5024398;28;20116;-71
2022/12/22 03:52:14;;;;;;;379.15;31.92;;;;;;;7.47;100.00;100026.88;5020030;28;20066;-71
2022/12/22 03:54:40;;;;;;;220.50;23.05;;;;;;;7.47;100.00;100030.41;5023336;28;20038;-71
2022/12/22 03:57:05;;;;;;;308.83;28.27;;;;;;;7.44;100.00;100024.25;5022165;28;20056;-71
2022/12/22 03:59:30;;;;;;;316.23;26.02;;;;;;;7.40;100.00;100028.63;5021935;28;20037;-71
2022/12/22 04:01:56;;;;;;;171.07;19.70;;;;;;;7.43;100.00;100018.13;5023891;28;20116;-71
2022/12/22 04:04:24;;;;;;;202.23;22.17;;;;;;;7.42;100.00;100015.47;5020848;28;20037;-71
2022/12/22 04:06:49;;;;;;;237.65;25.15;;;;;;;7.43;100.00;100019.88;5020730;28;20022;-71
2022/12/22 04:09:14;;;;;;;168.00;21.48;;;;;;;7.44;100.00;100011.09;5022584;28;20040;-71
2022/12/22 04:14:24;;;;;;;287.70;28.17;;;;;;;7.41;100.00;100014.63;5022339;28;20045;-71
2022/12/22 04:16:49;;;;;;;215.30;24.10;;;;;;;7.42;100.00;100015.47;5027961;28;20033;-71
2022/12/22 04:19:15;;;;;;;125.88;20.25;;;;;;;7.44;100.00;100013.72;5025222;28;20049;-71
2022/12/22 04:21:41;;;;;;;152.82;20.27;;;;;;;7.43;100.00;100012.00;5027052;28;20484;-71
2022/12/22 04:24:07;;;;;;;134.98;19.27;;;;;;;7.44;100.00;100005.84;5026307;28;20442;-69
2022/12/22 04:26:33;;;;;;;86.80;17.02;;;;;;;7.45;100.00;100012.84;5026124;28;20061;-70
2022/12/22 04:28:58;;;;;;;108.70;19.42;;;;;;;7.41;100.00;100013.72;5026800;28;20465;-70
2022/12/22 04:31:24;;;;;;;138.07;20.77;;;;;;;7.38;100.00;100018.97;5024327;28;20488;-70
2022/12/22 04:33:49;;;;;;;158.13;21.17;;;;;;;7.35;100.00;100025.09;5027715;28;20037;-70
2022/12/22 04:36:15;;;;;;;179.10;22.77;;;;;;;7.35;100.00;100021.59;5024432;28;20030;-70
2022/12/22 04:38:41;;;;;;;108.72;19.15;;;;;;;7.35;100.00;100025.09;5026752;28;20072;-70
2022/12/22 04:41:07;;;;;;;92.57;18.40;;;;;;;7.40;100.00;100030.38;5025427;28;20025;-70
2022/12/22 04:43:33;;;;;;;148.93;22.60;;;;;;;7.41;100.00;100029.50;5025332;28;20500;-70
2022/12/22 04:45:58;;;;;;;81.97;18.33;;;;;;;7.43;100.00;100035.66;5026998;28;20461;-69
2022/12/22 04:48:25;;;;;;;102.75;19.70;;;;;;;7.43;100.00;100033.03;5023902;28;20038;-70
2022/12/22 04:50:53;;;;;;;200.73;24.67;;;;;;;7.43;100.00;100035.66;5027234;28;20061;-70
2022/12/22 04:53:19;;;;;;;187.05;24.38;;;;;;;7.43;100.00;100027.78;5024035;28;20506;-70
2022/12/22 04:55:50;;;;;;;203.75;23.23;;;;;;;7.46;100.00;100040.94;5026930;28;20036;-70
2022/12/22 04:58:16;;;;;;;163.68;22.77;;;;;;;7.47;100.00;100029.50;5023818;28;20046;-70
2022/12/22 05:00:42;;;;;;;105.50;21.27;;;;;;;7.51;100.00;100031.28;5025092;28;20592;-70
2022/12/22 05:03:07;;;;;;;254.02;25.50;;;;;;;7.49;100.00;100026.03;5025527;28;20113;-70
2022/12/22 05:05:33;;;;;;;279.50;24.65;;;;;;;7.49;100.00;100018.13;5024894;28;20032;-70
2022/12/22 05:07:59;;;;;;;390.92;32.50;;;;;;;7.45;100.00;100015.50;5026288;28;20476;-70
2022/12/22 05:10:24;;;;;;;181.30;21.67;;;;;;;7.44;100.00;100011.09;5023855;28;20033;-70
2022/12/22 05:12:55;;;;;;;192.15;22.25;;;;;;;7.40;100.00;100019.88;5027047;28;20038;-70
2022/12/22 05:15:23;;;;;;;195.75;23.33;;;;;;;7.33;100.00;100016.31;5022436;28;20034;-70
2022/12/22 05:17:49;;;;;;;184.75;22.17;;;;;;;7.31;100.00;100024.19;5023567;28;20080;-70
2022/12/22 05:20:15;;;;;;;176.45;22.83;;;;;;;7.29;100.00;100031.19;5026268;28;20108;-70
2022/12/22 05:22:41;;;;;;;128.95;18.63;;;;;;;7.26;100.00;100027.69;5023288;28;20105;-71
2022/12/22 05:25:06;;;;;;;143.30;19.33;;;;;;;7.23;100.00;100039.06;5024438;28;20026;-70
2022/12/22 05:27:32;;;;;;;193.93;22.25;;;;;;;7.19;100.00;100039.03;5024805;28;20080;-71
2022/12/22 05:29:57;;;;;;;193.38;23.65;;;;;;;7.20;100.00;100035.53;5023797;28;20474;-70
2022/12/22 05:32:22;;;;;;;164.95;22.75;;;;;;;7.22;100.00;100033.78;5026565;28;20026;-71
2022/12/22 05:34:48;;;;;;;125.43;21.55;;;;;;;7.28;100.00;100045.22;5022959;28;20563;-70
2022/12/22 05:37:13;;;;;;;159.32;24.10;;;;;;;7.31;100.00;100044.34;5025883;28;20464;-70
2022/12/22 05:39:38;;;;;;;116.82;20.38;;;;;;;7.33;100.00;100046.13;5024194;28;20449;-70
2022/12/22 05:42:04;;;;;;;138.32;22.27;;;;;;;7.34;100.00;100044.38;5024325;28;20038;-71
2022/12/22 05:44:29;;;;;;;142.40;23.45;;;;;;;7.36;100.00;100036.50;5025598;28;20029;-71
2022/12/22 05:46:54;;;;;;;106.45;22.95;;;;;;;7.40;100.00;100049.66;5022878;28;20065;-70
2022/12/22 05:49:20;;;;;;;138.60;25.02;;;;;;;7.41;100.00;100055.78;5024884;28;20033;-70
2022/12/22 05:51:45;;;;;;;63.22;21.05;;;;;;;7.44;100.00;100048.81;5023268;28;20034;-71
2022/12/22 05:54:11;;;;;;;58.80;20.05;;;;;;;7.49;100.00;100056.72;5024938;28;20030;-71
2022/12/22 05:56:36;;;;;;;69.05;20.88;;;;;;;7.48;100.00;100061.09;5022912;28;20576;-71
2022/12/22 05:59:02;;;;;;;69.78;20.92;;;;;;;7.49;100.00;100073.38;5022610;28;20030;-71
2022/12/22 06:01:27;;;;;;;53.00;19.08;;;;;;;7.52;100.00;100075.13;5024171;28;20427;-71
2022/12/22 06:03:53;;;;;;;50.47;18.60;;;;;;;7.53;100.00;100087.41;5022669;28;20502;-71
2022/12/22 06:06:18;;;;;;;52.25;19.05;;;;;;;7.60;100.00;100093.56;5025801;28;20119;-71
2022/12/22 06:08:44;;;;;;;53.78;19.98;;;;;;;7.62;100.00;100092.72;5022966;28;20029;-71
2022/12/22 06:11:09;;;;;;;55.90;19.90;;;;;;;7.67;100.00;100100.63;5024888;28;20069;-71
2022/12/22 06:13:34;;;;;;;61.25;20.67;;;;;;;7.66;100.00;100099.75;5024120;28;20030;-76
2022/12/22 06:16:00;;;;;;;60.97;20.60;;;;;;;7.68;100.00;100108.50;5021835;28;20025;-75
2022/12/22 06:18:25;;;;;;;66.15;22.35;;;;;;;7.72;100.00;100105.91;5025697;28;20436;-69
2022/12/22 06:20:52;;;;;;;65.07;22.15;;;;;;;7.73;100.00;100107.66;5027818;28;20045;-71
2022/12/22 06:23:17;;;;;;;68.93;22.58;;;;;;;7.71;100.00;100117.31;5025233;28;20032;-72
2022/12/22 06:25:52;;;;;;;71.68;23.58;;;;;;;7.72;100.00;100119.06;5027496;28;20404;-70
2022/12/22 06:28:18;;;;;;;63.20;24.27;;;;;;;7.75;100.00;100125.22;5026093;28;20017;-70
2022/12/22 06:30:43;;;;;;;67.72;25.58;;;;;;;7.79;100.00;100126.09;5021726;28;20033;-71
2022/12/22 06:33:09;;;;;;;73.95;26.20;;;;;;;7.79;100.00;100131.38;5025862;28;20054;-71
2022/12/22 06:35:35;;;;;;;76.45;25.88;;;;;;;7.77;100.00;100127.84;5024632;28;20066;-70
2022/12/22 06:38:01;;;;;;;74.85;28.95;;;;;;;7.80;100.00;100138.41;5027026;28;20025;-71
2022/12/22 06:40:26;;;;;;;75.30;27.20;;;;;;;7.82;100.00;100149.78;5026719;28;20080;-70
2022/12/22 06:43:09;;;;;;;83.72;30.00;;;;;;;7.78;100.00;100153.31;5028005;28;20108;-72
2022/12/22 06:45:37;;;;;;;89.25;31.02;;;;;;;7.75;100.00;100146.28;5026321;28;20042;-69
2022/12/22 06:48:03;;;;;;;90.20;30.65;;;;;;;7.74;100.00;100152.41;5028129;28;20025;-73
2022/12/22 06:50:28;;;;;;;98.78;31.58;;;;;;;7.74;100.00;100148.91;5024994;28;20037;-72
2022/12/22 06:52:54;;;;;;;93.53;31.20;;;;;;;7.73;100.00;100162.91;5025758;28;20026;-72
2022/12/22 06:55:19;;;;;;;102.00;30.73;;;;;;;7.74;100.00;100164.69;5026131;28;20064;-75
2022/12/22 06:57:44;;;;;;;96.07;30.75;;;;;;;7.75;100.00;100171.72;5024198;28;20407;-74
2022/12/22 07:00:10;;;;;;;94.03;31.58;;;;;;;7.76;100.00;100178.72;5026836;28;20036;-71
2022/12/22 07:02:36;;;;;;;92.28;30.50;;;;;;;7.77;100.00;100183.13;5023956;28;20022;-70
2022/12/22 07:05:01;;;;;;;102.95;32.65;;;;;;;7.72;100.00;100187.47;5024763;28;20061;-70
2022/12/22 07:07:26;;;;;;;84.05;29.48;;;;;;;7.73;100.00;100192.72;5023815;28;20017;-73
2022/12/22 07:09:53;;;;;;;93.32;31.67;;;;;;;7.68;100.00;100205.84;5027132;28;20063;-72
2022/12/22 07:12:18;;;;;;;93.80;31.85;;;;;;;7.65;100.00;100208.47;5020312;28;20026;-73
2022/12/22 07:14:43;;;;;;;93.82;32.00;;;;;;;7.66;100.00;100228.66;5027148;28;20468;-73
2022/12/22 07:17:09;;;;;;;97.45;32.08;;;;;;;7.64;100.00;100225.13;5025142;28;20566;-74
2022/12/22 07:19:34;;;;;;;98.10;32.55;;;;;;;7.64;100.00;100230.38;5027430;28;20519;-74
2022/12/22 07:21:59;;;;;;;101.18;32.60;;;;;;;7.59;100.00;100221.59;5026653;28;20057;-71
2022/12/22 07:24:25;;;;;;;96.60;32.03;;;;;;;7.56;100.00;100216.31;5024219;28;20393;-74
2022/12/22 07:26:51;;;;;;;104.10;34.15;;;;;;;7.49;100.00;100217.16;5027731;28;20064;-72
2022/12/22 07:29:16;;;;;;;98.90;33.75;;;;;;;7.42;100.00;100213.56;5023832;28;20428;-70
2022/12/22 07:31:42;;;;;;;106.55;35.17;;;;;;;7.33;100.00;100211.75;5025341;28;20033;-72
2022/12/22 07:34:07;;;;;;;112.68;35.47;;;;;;;7.26;100.00;100212.59;5029086;28;20044;-77
2022/12/22 07:36:32;;;;;;;122.35;35.53;;;;;;;7.21;100.00;100222.19;5025857;28;20022;-70
2022/12/22 07:38:58;;;;;;;109.95;35.60;;;;;;;7.23;100.00;100214.31;5027265;28;20018;-70
2022/12/22 07:44:07;;;;;;;126.38;36.78;;;;;;;7.22;100.00;100233.59;5023180;28;20049;-73
2022/12/22 07:46:35;;;;;;;118.63;38.63;;;;;;;7.24;100.00;100252.91;5025398;28;20059;-73
2022/12/22 07:51:48;;;;;;;123.70;38.65;;;;;;;7.22;100.00;100252.84;5027725;28;20068;-73
2022/12/22 07:54:15;;;;;;;122.47;37.97;;;;;;;7.23;100.00;100265.13;5030021;28;20037;-73
2022/12/22 07:56:41;;;;;;;124.97;38.53;;;;;;;7.23;100.00;100264.28;5030638;28;20045;-76
2022/12/22 07:59:07;;;;;;;114.20;36.08;;;;;;;7.24;100.00;100274.81;5028035;28;20041;-74
2022/12/22 08:01:33;;;;;;;114.30;36.88;;;;;;;7.26;100.00;100293.22;5030902;28;20033;-71
2022/12/22 08:03:59;;;;;;;120.72;36.88;;;;;;;7.30;100.00;100297.63;5031472;28;20370;-72
2022/12/22 08:06:24;;;;;;;118.45;37.40;;;;;;;7.27;100.00;100301.13;5031077;28;20116;-74
2022/12/22 08:08:50;;;;;;;121.03;37.40;;;;;;;7.29;100.00;100309.88;5029088;28;20374;-73
2022/12/22 08:11:15;;;;;;;124.80;37.50;;;;;;;7.28;100.00;100323.91;5031125;28;20049;-75
2022/12/22 08:13:42;;;;;;;115.13;36.33;;;;;;;7.28;100.00;100333.53;5030637;28;20102;-76
2022/12/22 08:16:10;;;;;;;121.15;38.47;;;;;;;7.26;100.00;100320.38;5027594;28;20025;-75
2022/12/22 08:18:37;;;;;;;110.95;36.50;;;;;;;7.25;100.00;100325.63;5026710;28;20034;-73
2022/12/22 08:21:04;;;;;;;110.07;35.90;;;;;;;7.25;100.00;100323.00;5025229;28;20135;-76
2022/12/22 08:23:30;;;;;;;121.80;37.20;;;;;;;7.29;100.00;100325.66;5026843;28;20493;-74
2022/12/22 08:26:32;;;;;;;121.38;37.00;;;;;;;7.36;100.00;100325.75;5028067;28;20026;-74
2022/12/22 08:29:12;;;;;;;112.97;36.42;;;;;;;7.19;100.00;100325.56;5020368;28;20038;-74
2022/12/22 08:31:39;;;;;;;116.10;37.95;;;;;;;7.18;100.00;100329.97;5028951;28;20026;-75
2022/12/22 08:34:08;;;;;;;117.50;38.13;;;;;;;7.18;100.00;100347.47;5031084;28;20033;-72
2022/12/22 08:36:39;;;;;;;113.93;37.42;;;;;;;7.09;100.00;100351.78;5031830;28;20100;-73
2022/12/22 08:39:05;;;;;;;114.10;38.50;;;;;;;7.05;100.00;100349.06;5026060;28;20025;-72
2022/12/22 08:41:49;;;;;;;113.15;36.80;;;;;;;7.08;100.00;100372.78;5030028;28;20057;-71
2022/12/22 08:44:15;;;;;;;121.50;40.72;;;;;;;7.04;100.00;100381.50;5025572;28;20450;-71
2022/12/22 08:46:41;;;;;;;111.65;39.08;;;;;;;7.02;100.00;100384.13;5027131;28;20029;-71
2022/12/22 08:49:06;;;;;;;116.25;38.17;;;;;;;7.04;100.00;100399.91;5027760;28;20037;-71
2022/12/22 08:51:32;;;;;;;114.10;38.47;;;;;;;7.12;100.00;100406.09;5031277;28;20022;-71
2022/12/22 08:53:57;;;;;;;110.85;37.10;;;;;;;7.15;100.00;100416.69;5027679;28;20037;-71
2022/12/22 08:56:22;;;;;;;102.85;37.00;;;;;;;7.11;100.00;100414.88;5024948;28;20496;-71
2022/12/22 08:58:48;;;;;;;99.93;36.85;;;;;;;6.95;100.00;100417.31;5031337;28;20447;-71
2022/12/22 09:01:19;;;;;;;105.82;35.30;;;;;;;6.87;100.00;100420.69;5031636;28;20493;-72
2022/12/22 09:03:51;;;;;;;107.05;36.35;;;;;;;6.77;100.00;100422.31;5028071;28;20476;-71
2022/12/22 09:06:22;;;;;;;101.10;36.83;;;;;;;6.67;100.00;100431.84;5027870;28;20040;-71
2022/12/22 09:08:47;;;;;;;101.43;37.90;;;;;;;6.61;100.00;100429.09;5023772;28;20022;-71
2022/12/22 09:11:14;;;;;;;104.07;38.28;;;;;;;6.55;100.00;100431.66;5026319;28;20461;-71
2022/12/22 09:13:39;;;;;;;100.43;37.92;;;;;;;6.53;100.00;100431.63;5024659;28;20034;-71
2022/12/22 09:16:08;;;;;;;105.03;38.58;;;;;;;6.53;100.00;100436.03;5025336;28;20355;-71
2022/12/22 09:18:34;;;;;;;103.25;37.70;;;;;;;6.45;100.00;100435.88;5023851;28;20025;-71
2022/12/22 09:21:00;;;;;;;104.35;36.97;;;;;;;6.43;100.00;100435.88;5024528;28;20030;-71
2022/12/22 09:23:26;;;;;;;102.50;38.63;;;;;;;6.37;100.00;100440.16;5026123;28;20076;-71
2022/12/22 09:25:51;;;;;;;103.32;38.10;;;;;;;6.49;100.00;100440.31;5023140;28;20572;-71
2022/12/22 09:28:17;;;;;;;107.68;40.15;;;;;;;6.67;100.00;100437.09;5023298;28;20030;-71
2022/12/22 09:30:49;;;;;;;106.40;40.03;;;;;;;6.84;100.00;100455.69;5025830;28;20057;-71
2022/12/22 09:33:14;;;;;;;115.75;42.05;;;;;;;6.90;100.00;100449.66;5023291;28;20037;-72
2022/12/22 09:35:40;;;;;;;115.30;41.88;;;;;;;6.96;100.00;100455.88;5025541;28;20030;-72
2022/12/22 09:38:05;;;;;;;110.22;43.70;;;;;;;7.10;100.00;100463.91;5024372;28;20041;-71
2022/12/22 09:40:31;;;;;;;110.15;44.20;;;;;;;7.20;100.00;100462.28;5024069;28;20030;-71
2022/12/22 09:42:57;;;;;;;102.45;41.95;;;;;;;7.33;100.00;100458.94;5025865;28;20109;-72
2022/12/22 09:45:22;;;;;;;97.07;42.53;;;;;;;7.46;100.00;100459.97;5022844;28;20022;-71
2022/12/22 09:47:53;;;;;;;89.50;41.08;;;;;;;7.61;100.00;100474.16;5024872;28;20074;-71
2022/12/22 09:50:22;;;;;;;80.97;39.22;;;;;;;7.43;100.00;100469.59;5022871;28;20026;-72
2022/12/22 09:52:55;;;;;;;76.53;37.15;;;;;;;7.17;100.00;100478.03;5022850;28;20523;-71
2022/12/22 09:55:23;;;;;;;78.97;38.67;;;;;;;6.93;100.00;100471.59;5022628;28;20030;-72
2022/12/22 09:57:49;;;;;;;77.75;37.65;;;;;;;6.84;100.00;100474.09;5022457;28;20046;-71
2022/12/22 10:00:18;;;;;;;78.20;38.22;;;;;;;6.92;100.00;100476.84;5025760;28;20026;-71
2022/12/22 10:03:21;;;;;;;79.70;38.95;;;;;;;6.93;100.00;100479.50;5022752;28;20381;-71
2022/12/22 10:06:02;;;;;;;75.05;38.63;;;;;;;7.18;100.00;100489.41;5025747;28;20079;-71
2022/12/22 10:08:34;;;;;;;72.57;37.22;;;;;;;7.30;100.00;100500.97;5023478;28;20052;-71
2022/12/22 10:10:59;;;;;;;63.95;34.42;;;;;;;7.15;100.00;100498.19;5024797;28;20033;-71
2022/12/22 10:13:24;;;;;;;64.65;33.97;;;;;;;7.01;100.00;100497.09;5021957;28;20045;-71
2022/12/22 10:15:52;;;;;;;60.17;31.30;;;;;;;6.94;100.00;100511.91;5025878;28;20061;-71
2022/12/22 10:18:23;;;;;;;55.33;29.25;;;;;;;6.89;100.00;100503.94;5022312;28;20037;-71
2022/12/22 10:21:10;;;;;;;57.25;30.38;;;;;;;6.88;100.00;100507.44;5022161;28;20022;-71
2022/12/22 10:23:53;;;;;;;53.72;29.17;;;;;;;6.88;100.00;100506.56;5023812;28;20026;-71
2022/12/22 10:26:28;;;;;;;52.92;28.20;;;;;;;6.88;100.00;100503.94;5022167;28;20034;-71
2022/12/22 10:29:04;;;;;;;44.50;21.77;;;;;;;7.13;100.00;100500.75;5022183;28;20026;-71
2022/12/22 10:31:38;;;;;;;43.83;23.27;;;;;;;7.37;100.00;100508.94;5024525;28;20025;-71
2022/12/22 10:34:15;;;;;;;43.30;22.00;;;;;;;7.31;100.00;100510.66;5021920;28;20029;-71
2022/12/22 10:36:47;;;;;;;39.85;20.25;;;;;;;7.21;100.00;100523.63;5026920;28;20553;-71
2022/12/22 10:39:20;;;;;;;36.72;19.25;;;;;;;7.22;100.00;100517.53;5024065;28;20424;-71
2022/12/22 10:41:48;;;;;;;36.75;19.08;;;;;;;7.26;100.00;100520.19;5021702;28;20026;-71
2022/12/22 10:44:17;;;;;;;40.60;20.35;;;;;;;7.67;100.00;100517.22;5024237;28;20040;-71
2022/12/22 10:46:47;;;;;;;38.17;18.85;;;;;;;7.72;100.00;100511.97;5022026;28;20477;-70
2022/12/22 10:49:15;;;;;;;37.95;19.80;;;;;;;7.66;100.00;100515.44;5024125;28;20026;-71
2022/12/22 10:51:45;;;;;;;38.80;19.50;;;;;;;7.78;100.00;100516.44;5022860;28;20156;-71
2022/12/22 10:54:29;;;;;;;36.50;19.13;;;;;;;8.15;100.00;100516.78;5023842;28;20030;-72
2022/12/22 10:57:23;;;;;;;34.33;18.52;;;;;;;8.61;100.00;100519.84;5021222;28;20049;-72
2022/12/22 10:59:49;;;;;;;34.20;16.63;;;;;;;8.62;100.00;100521.59;5021640;28;20033;-71
2022/12/22 11:02:20;;;;;;;33.03;17.30;;;;;;;8.19;100.00;100524.72;5024163;28;20431;-72
2022/12/22 11:04:46;;;;;;;31.67;16.52;;;;;;;7.94;100.00;100530.63;5021733;28;20350;-71
2022/12/22 11:07:12;;;;;;;33.97;17.30;;;;;;;7.84;100.00;100530.53;5024006;28;20034;-71
2022/12/22 11:09:38;;;;;;;34.53;18.13;;;;;;;7.81;100.00;100524.34;5023244;28;20431;-72
2022/12/22 11:12:20;;;;;;;33.67;16.67;;;;;;;7.82;100.00;100540.16;5022784;28;20034;-72
2022/12/22 11:14:54;;;;;;;31.23;15.70;;;;;;;8.08;100.00;100539.56;5022026;28;20429;-72
2022/12/22 11:17:31;;;;;;;29.50;15.15;;;;;;;8.76;100.00;100541.91;5021461;28;20053;-72
2022/12/22 11:20:26;;;;;;;31.63;17.42;;;;;;;8.69;100.00;100541.84;5021739;28;20101;-72
2022/12/22 11:23:27;;;;;;;33.65;19.45;;;;;;;8.39;100.00;100534.56;5021061;28;20038;-72
2022/12/22 11:26:06;;;;;;;35.38;19.35;;;;;;;8.76;100.00;100532.22;4985853;28;20358;-72
2022/12/22 11:28:37;;;;;;;33.33;18.55;;;;;;;9.45;100.00;100537.00;5022129;28;20046;-72
2022/12/22 11:31:23;;;;;;;34.72;20.25;;;;;;;9.39;100.00;100535.22;5023486;28;20033;-72
2022/12/22 11:34:13;;;;;;;34.03;21.17;;;;;;;9.29;100.00;100545.72;5024899;28;20388;-72
2022/12/22 11:36:57;;;;;;;34.47;20.75;;;;;;;9.22;100.00;100550.09;5023098;28;20497;-72
2022/12/22 11:39:45;;;;;;;35.40;20.77;;;;;;;9.13;100.00;100550.94;5021394;28;20022;-72
2022/12/22 11:42:23;;;;;;;35.35;22.15;;;;;;;8.98;100.00;100553.47;5023278;28;20026;-72
2022/12/22 11:45:13;;;;;;;35.47;21.90;;;;;;;8.80;100.00;100549.81;5021133;28;20033;-72
2022/12/22 11:47:58;;;;;;;34.70;22.05;;;;;;;8.45;100.00;100545.16;5022949;28;20026;-71
2022/12/22 11:50:40;;;;;;;36.17;22.33;;;;;;;8.22;100.00;100563.38;5021319;28;20056;-71
2022/12/22 11:53:41;;;;;;;35.45;22.92;;;;;;;8.13;100.00;100563.28;5022437;28;20508;-71
2022/12/22 11:56:32;;;;;;;36.38;23.17;;;;;;;8.05;100.00;100560.56;5021201;28;20061;-75
2022/12/22 11:59:35;;;;;;;36.85;22.92;;;;;;;7.96;100.00;100547.31;5023049;28;20072;-71
2022/12/22 12:02:19;;;;;;;;;;;;;;;7.91;100.00;100546.41;5022926;28;20508;-69
2022/12/22 12:04:53;;;;;;;35.58;23.05;;;;;;;8.52;100.00;100540.84;5027272;28;19913;-70
2022/12/22 12:07:27;;;;;;;37.05;22.85;;;;;;;8.97;100.00;100555.22;5021287;28;20079;-69
2022/12/22 12:10:17;;;;;;;32.10;19.17;;;;;;;9.15;100.00;100535.97;5025431;28;20481;-69
2022/12/22 12:13:07;;;;;;;30.52;17.55;;;;;;;9.40;100.00;100538.72;4992503;28;20042;-70
2022/12/22 12:15:44;;;;;;;29.80;16.58;;;;;;;8.78;100.00;100532.22;5020653;28;20036;-69
2022/12/22 12:18:46;;;;;;;29.70;15.88;;;;;;;8.31;100.00;100523.06;5023298;28;20468;-69
2022/12/22 12:21:48;;;;;;;29.25;16.52;;;;;;;8.18;100.00;100508.91;5025322;28;20060;-70
2022/12/22 12:24:19;;;;;;;29.60;16.17;;;;;;;8.08;100.00;100518.50;5025325;28;20100;-70
2022/12/22 12:26:58;;;;;;;30.58;16.25;;;;;;;8.24;100.00;100508.94;5024871;28;20105;-71
2022/12/22 12:29:27;;;;;;;29.45;15.98;;;;;;;8.19;100.00;100505.41;5022726;28;20026;-71
2022/12/22 12:32:01;;;;;;;29.95;15.80;;;;;;;8.18;100.00;100501.00;5027400;28;20026;-71
2022/12/22 12:34:32;;;;;;;27.85;15.27;;;;;;;8.09;100.00;100493.91;5026112;28;20079;-70
2022/12/22 12:37:00;;;;;;;29.35;16.33;;;;;;;8.04;100.00;100493.00;5026642;28;20029;-70
2022/12/22 12:39:52;;;;;;;29.85;16.25;;;;;;;8.15;100.00;100491.31;5031802;28;20057;-70
2022/12/22 12:42:27;;;;;;;28.20;15.10;;;;;;;7.98;100.00;100485.94;5025583;28;20417;-71
2022/12/22 12:44:53;;;;;;;29.30;16.13;;;;;;;7.91;100.00;100489.38;5027351;28;20034;-70
2022/12/22 12:47:23;;;;;;;28.27;15.90;;;;;;;7.89;100.00;100498.09;5028095;28;20033;-71
2022/12/22 12:50:17;;;;;;;29.33;15.65;;;;;;;7.83;100.00;100497.19;5027359;28;20025;-70
2022/12/22 12:52:47;;;;;;;30.08;16.13;;;;;;;7.76;100.00;100494.47;5024059;28;20077;-70
2022/12/22 12:55:50;;;;;;;32.85;17.48;;;;;;;7.76;100.00;100498.00;5026204;28;20483;-70
2022/12/22 12:58:34;;;;;;;31.00;16.42;;;;;;;7.87;100.00;100495.47;5026515;28;20103;-70
2022/12/22 13:01:10;;;;;;;31.63;17.73;;;;;;;7.91;100.00;100484.09;5024285;28;20054;-70
2022/12/22 13:03:41;;;;;;;30.95;17.52;;;;;;;8.02;100.00;100477.19;5025747;28;20026;-71
2022/12/22 13:06:48;;;;;;;30.45;17.88;;;;;;;8.08;100.00;100480.72;5025252;28;20419;-70
2022/12/22 13:09:21;;;;;;;32.28;18.27;;;;;;;8.68;100.00;100490.03;5026081;28;20133;-71
2022/12/22 13:11:49;;;;;;;30.13;17.80;;;;;;;8.66;100.00;100497.00;5024054;28;20457;-70
2022/12/22 13:14:53;;;;;;;31.65;18.23;;;;;;;8.49;100.00;100490.75;5025772;28;20124;-71
2022/12/22 13:17:37;;;;;;;31.52;18.45;;;;;;;8.24;100.00;100482.63;5022617;28;20041;-70
2022/12/22 13:20:04;;;;;;;32.95;19.10;;;;;;;8.09;100.00;100487.78;5024369;28;20034;-70
2022/12/22 13:22:29;;;;;;;32.80;19.58;;;;;;;8.06;100.00;100485.13;5024785;28;20030;-71
2022/12/22 13:24:56;;;;;;;33.20;19.17;;;;;;;8.00;100.00;100486.81;5023186;28;20125;-70
2022/12/22 13:27:22;;;;;;;30.17;17.65;;;;;;;8.10;100.00;100487.78;5023590;28;20021;-71
2022/12/22 13:29:50;;;;;;;31.40;18.90;;;;;;;7.89;100.00;100488.44;5026085;28;20137;-71
2022/12/22 13:32:33;;;;;;;31.08;18.75;;;;;;;7.98;100.00;100495.56;5023601;28;20056;-71
2022/12/22 13:35:04;;;;;;;29.58;17.27;;;;;;;7.83;100.00;100496.28;5023357;28;20053;-70
2022/12/22 13:37:29;;;;;;;25.65;13.20;;;;;;;7.93;100.00;100492.88;5026026;28;20035;-71
2022/12/22 13:40:14;;;;;;;26.95;13.77;;;;;;;7.83;100.00;100481.41;5023022;28;20022;-71
2022/12/22 13:43:04;;;;;;;26.13;13.50;;;;;;;7.77;100.00;100473.44;5025016;28;20025;-71
2022/12/22 13:45:45;;;;;;;24.88;12.68;;;;;;;7.80;100.00;100465.56;5015848;28;20037;-70
2022/12/22 13:48:22;;;;;;;25.75;13.20;;;;;;;7.79;100.00;100453.28;5023083;28;20026;-70
2022/12/22 13:50:53;;;;;;;25.33;12.82;;;;;;;7.73;100.00;100460.22;5025617;28;20025;-70
2022/12/22 13:53:45;;;;;;;25.33;12.77;;;;;;;7.72;100.00;100456.72;5022824;28;20028;-70
2022/12/22 13:56:21;;;;;;;25.65;12.90;;;;;;;7.71;100.00;100460.22;5015677;28;20188;-70
2022/12/22 13:58:51;;;;;;;25.88;13.13;;;;;;;7.72;100.00;100450.56;5025446;28;20045;-70
2022/12/22 14:01:18;;;;;;;25.80;13.63;;;;;;;7.68;100.00;100450.53;5023219;28;20373;-70
2022/12/22 14:03:50;;;;;;;26.02;14.32;;;;;;;7.73;100.00;100450.56;5024977;28;20026;-70
2022/12/22 14:06:31;;;;;;;26.77;14.57;;;;;;;7.63;100.00;100443.47;5023089;28;20026;-70
2022/12/22 14:09:13;;;;;;;27.10;15.00;;;;;;;7.54;100.00;100451.28;5022637;28;20276;-70
2022/12/22 14:11:39;;;;;;;;;;;;;;;7.47;100.00;100445.97;5024370;28;20013;-70
2022/12/22 14:14:13;;;;;;;27.50;14.85;;;;;;;7.42;100.00;100450.28;5023457;28;19960;-70
2022/12/22 14:16:45;;;;;;;28.90;15.32;;;;;;;7.38;100.00;100439.69;5022990;28;20030;-70
2022/12/22 14:19:15;;;;;;;27.63;15.57;;;;;;;7.39;100.00;100437.09;5025862;28;20026;-70
2022/12/22 14:21:44;;;;;;;27.83;15.80;;;;;;;7.28;100.00;100436.06;5023940;28;20029;-71
2022/12/22 14:24:21;;;;;;;27.98;15.80;;;;;;;7.23;100.00;100425.50;5023025;28;20044;-71
2022/12/22 14:26:47;;;;;;;28.95;16.02;;;;;;;7.14;100.00;100420.16;5022815;28;20044;-71
2022/12/22 14:29:16;;;;;;;28.65;16.02;;;;;;;7.12;100.00;100421.88;5023329;28;20524;-70
2022/12/22 14:32:01;;;;;;;31.23;17.45;;;;;;;7.07;100.00;100415.69;5023984;28;20055;-70
2022/12/22 14:34:32;;;;;;;31.75;17.83;;;;;;;7.00;100.00;100406.84;5021804;28;20063;-70
2022/12/22 14:36:58;;;;;;;31.17;18.13;;;;;;;7.05;100.00;100409.53;5022182;28;20072;-70
2022/12/22 14:39:26;;;;;;;32.00;18.20;;;;;;;6.97;100.00;100412.97;5024821;28;20026;-70
2022/12/22 14:42:11;;;;;;;31.65;17.85;;;;;;;6.97;100.00;100401.56;5022083;28;20054;-70
2022/12/22 14:44:46;;;;;;;32.15;18.42;;;;;;;6.97;100.00;100402.47;5022595;28;20033;-70
2022/12/22 14:47:11;;;;;;;32.22;18.75;;;;;;;6.96;100.00;100398.06;5023665;28;20033;-70
2022/12/22 14:50:14;;;;;;;33.67;19.08;;;;;;;6.97;100.00;100391.03;5022413;28;20026;-70
2022/12/22 14:52:50;;;;;;;32.05;17.83;;;;;;;6.96;100.00;100392.81;5023149;28;20029;-71
2022/12/22 14:55:28;;;;;;;31.38;17.75;;;;;;;6.94;100.00;100388.38;5022835;28;20033;-71
2022/12/22 14:58:01;;;;;;;35.03;18.73;;;;;;;6.97;100.00;100397.19;5024209;28;20045;-70
2022/12/22 15:00:34;;;;;;;33.42;19.20;;;;;;;6.95;100.00;100387.53;5021525;28;20108;-70
2022/12/22 15:03:22;;;;;;;35.45;19.25;;;;;;;6.91;100.00;100381.34;5021529;28;20473;-70
2022/12/22 15:05:48;;;;;;;36.97;19.77;;;;;;;6.92;100.00;100383.13;5023763;28;20041;-70